createdAt,value
2023-05-09T00:00:14.680Z,12.04
2023-05-09T00:01:14.694Z,12.10
2023-05-09T00:02:14.883Z,11.95
2023-05-09T00:03:14.729Z,11.91
2023-05-09T00:04:14.707Z,11.99
2023-05-09T00:05:15.001Z,12.04
2023-05-09T00:06:14.670Z,11.99
2023-05-09T00:07:14.689Z,11.96
2023-05-09T00:08:14.680Z,11.99
2023-05-09T00:09:14.685Z,11.91
2023-05-09T00:10:14.675Z,12.04
2023-05-09T00:11:14.677Z,12.13
2023-05-09T00:12:14.675Z,12.07
2023-05-09T00:13:14.750Z,11.91
2023-05-09T00:14:14.667Z,11.95
2023-05-09T00:15:14.903Z,12.04
2023-05-09T00:16:14.716Z,11.96
2023-05-09T00:17:14.662Z,11.96
2023-05-09T00:18:14.779Z,11.99
2023-05-09T00:19:14.664Z,12.02
2023-05-09T00:20:14.728Z,12.07
2023-05-09T00:21:14.662Z,11.91
2023-05-09T00:22:14.670Z,12.10
2023-05-09T00:23:14.658Z,12.10
2023-05-09T00:24:14.662Z,12.05
2023-05-09T00:25:14.949Z,12.07
2023-05-09T00:26:14.649Z,12.13
2023-05-09T00:27:14.662Z,12.07
2023-05-09T00:28:14.667Z,12.13
2023-05-09T00:29:14.676Z,12.09
2023-05-09T00:30:14.647Z,12.07
2023-05-09T00:31:14.655Z,12.16
2023-05-09T00:32:14.733Z,12.16
2023-05-09T00:33:14.648Z,12.10
2023-05-09T00:34:14.774Z,12.14
2023-05-09T00:35:15.031Z,12.04
2023-05-09T00:36:14.642Z,12.07
2023-05-09T00:37:14.647Z,12.10
2023-05-09T00:38:14.634Z,12.04
2023-05-09T00:39:14.637Z,12.09
2023-05-09T00:40:14.632Z,12.12
2023-05-09T00:41:14.649Z,12.10
2023-05-09T00:42:14.639Z,12.14
2023-05-09T00:43:14.648Z,12.17
2023-05-09T00:44:14.661Z,12.17
2023-05-09T00:45:14.835Z,12.14
2023-05-09T00:46:14.659Z,12.07
2023-05-09T00:47:14.650Z,12.04
2023-05-09T00:48:14.625Z,11.99
2023-05-09T00:49:14.627Z,12.04
2023-05-09T00:50:14.747Z,12.01
2023-05-09T00:51:14.637Z,12.04
2023-05-09T00:52:14.618Z,11.95
2023-05-09T00:53:14.618Z,12.10
2023-05-09T00:54:14.620Z,11.94
2023-05-09T00:55:14.756Z,11.88
2023-05-09T00:56:14.624Z,11.96
2023-05-09T00:57:14.628Z,11.90
2023-05-09T00:58:14.616Z,12.01
2023-05-09T00:59:16.282Z,11.96
2023-05-09T01:00:14.621Z,11.99
2023-05-09T01:01:14.636Z,11.95
2023-05-09T01:02:14.639Z,11.95
2023-05-09T01:03:14.705Z,11.95
2023-05-09T01:04:14.607Z,11.90
2023-05-09T01:05:15.123Z,12.07
2023-05-09T01:06:14.724Z,11.96
2023-05-09T01:07:14.603Z,11.90
2023-05-09T01:08:14.602Z,11.95
2023-05-09T01:09:14.598Z,11.86
2023-05-09T01:10:14.606Z,11.95
2023-05-09T01:11:14.603Z,11.95
2023-05-09T01:12:14.596Z,11.91
2023-05-09T01:13:14.648Z,11.99
2023-05-09T01:14:14.593Z,11.88
2023-05-09T01:15:14.831Z,11.95
2023-05-09T01:16:14.627Z,11.99
2023-05-09T01:17:14.593Z,12.01
2023-05-09T01:18:14.675Z,11.95
2023-05-09T01:19:14.592Z,12.04
2023-05-09T01:20:14.610Z,11.90
2023-05-09T01:21:14.582Z,11.91
2023-05-09T01:22:14.707Z,11.90
2023-05-09T01:23:14.579Z,11.79
2023-05-09T01:24:14.597Z,11.80
2023-05-09T01:25:14.818Z,11.79
2023-05-09T01:26:14.580Z,11.80
2023-05-09T01:27:14.570Z,11.80
2023-05-09T01:28:14.584Z,11.69
2023-05-09T01:29:14.568Z,11.75
2023-05-09T01:30:14.574Z,11.78
2023-05-09T01:31:14.579Z,11.75
2023-05-09T01:32:14.574Z,11.73
2023-05-09T01:33:14.564Z,11.76
2023-05-09T01:34:14.564Z,11.85
2023-05-09T01:35:14.894Z,11.70
2023-05-09T01:36:14.567Z,11.70
2023-05-09T01:37:14.563Z,11.76
2023-05-09T01:38:14.680Z,11.67
2023-05-09T01:39:14.585Z,11.78
2023-05-09T01:40:14.556Z,11.70
2023-05-09T01:41:14.558Z,11.62
2023-05-09T01:42:14.557Z,11.61
2023-05-09T01:43:14.552Z,11.62
2023-05-09T01:44:14.588Z,11.69
2023-05-09T01:45:14.766Z,11.75
2023-05-09T01:46:14.607Z,11.85
2023-05-09T01:47:14.541Z,11.79
2023-05-09T01:48:14.552Z,11.73
2023-05-09T01:49:14.538Z,11.65
2023-05-09T01:50:14.550Z,11.69
2023-05-09T01:51:14.541Z,11.65
2023-05-09T01:52:14.550Z,11.69
2023-05-09T01:53:14.533Z,11.73
2023-05-09T01:54:14.649Z,11.72
2023-05-09T01:55:14.732Z,11.78
2023-05-09T01:56:14.535Z,11.72
2023-05-09T01:57:14.541Z,11.70
2023-05-09T01:58:14.533Z,11.55
2023-05-09T01:59:14.532Z,11.55
2023-05-09T02:00:14.531Z,11.75
2023-05-09T02:01:14.587Z,11.75
2023-05-09T02:02:14.571Z,11.79
2023-05-09T02:03:14.593Z,11.85
2023-05-09T02:04:14.524Z,11.73
2023-05-09T02:05:14.725Z,11.70
2023-05-09T02:06:14.515Z,11.79
2023-05-09T02:07:14.531Z,11.70
2023-05-09T02:08:14.518Z,11.78
2023-05-09T02:09:14.519Z,11.78
2023-05-09T02:10:14.655Z,11.85
2023-05-09T02:11:14.509Z,11.90
2023-05-09T02:12:14.516Z,11.78
2023-05-09T02:13:14.571Z,11.90
2023-05-09T02:14:14.504Z,11.90
2023-05-09T02:15:14.874Z,11.86
2023-05-09T02:16:14.535Z,11.90
2023-05-09T02:17:14.506Z,11.90
2023-05-09T02:18:14.506Z,11.96
2023-05-09T02:19:14.492Z,11.90
2023-05-09T02:20:14.510Z,11.96
2023-05-09T02:21:14.632Z,11.94
2023-05-09T02:22:14.494Z,11.78
2023-05-09T02:23:14.490Z,11.79
2023-05-09T02:24:14.508Z,11.99
2023-05-09T02:25:14.682Z,12.01
2023-05-09T02:26:14.610Z,11.85
2023-05-09T02:27:14.488Z,11.86
2023-05-09T02:28:14.496Z,12.01
2023-05-09T02:29:14.486Z,11.90
2023-05-09T02:30:14.485Z,11.90
2023-05-09T02:31:14.477Z,11.99
2023-05-09T02:32:14.525Z,11.98
2023-05-09T02:33:14.518Z,11.98
2023-05-09T02:34:14.482Z,12.05
2023-05-09T02:35:14.661Z,12.02
2023-05-09T02:36:14.470Z,12.09
2023-05-09T02:37:14.469Z,11.99
2023-05-09T02:38:14.485Z,12.02
2023-05-09T02:39:14.464Z,11.95
2023-05-09T02:40:14.472Z,12.02
2023-05-09T02:41:14.487Z,12.01
2023-05-09T02:42:14.623Z,11.86
2023-05-09T02:43:14.458Z,12.01
2023-05-09T02:44:14.464Z,11.96
2023-05-09T02:45:14.617Z,12.01
2023-05-09T02:46:14.489Z,11.91
2023-05-09T02:47:14.468Z,11.99
2023-05-09T02:48:14.508Z,11.96
2023-05-09T02:49:26.726Z,11.95
2023-05-09T02:50:14.451Z,12.01
2023-05-09T02:51:14.449Z,11.96
2023-05-09T02:52:14.465Z,12.01
2023-05-09T02:53:14.446Z,11.95
2023-05-09T02:54:14.448Z,12.01
2023-05-09T02:55:14.633Z,11.90
2023-05-09T02:56:14.496Z,11.88
2023-05-09T02:57:14.445Z,11.73
2023-05-09T02:58:15.206Z,11.78
2023-05-09T02:59:14.437Z,11.76
2023-05-09T03:00:14.449Z,11.79
2023-05-09T03:01:14.475Z,11.83
2023-05-09T03:02:14.440Z,11.55
2023-05-09T03:03:14.558Z,11.58
2023-05-09T03:04:14.459Z,11.55
2023-05-09T03:05:14.633Z,11.58
2023-05-09T03:06:14.468Z,11.61
2023-05-09T03:07:14.428Z,11.60
2023-05-09T03:08:14.431Z,11.42
2023-05-09T03:09:14.419Z,11.44
2023-05-09T03:10:14.425Z,11.37
2023-05-09T03:11:14.423Z,11.39
2023-05-09T03:12:14.420Z,11.36
2023-05-09T03:13:14.435Z,11.24
2023-05-09T03:14:14.539Z,11.14
2023-05-09T03:15:14.563Z,11.06
2023-05-09T03:16:14.488Z,11.11
2023-05-09T03:17:14.415Z,11.11
2023-05-09T03:18:14.417Z,11.11
2023-05-09T03:19:14.405Z,10.99
2023-05-09T03:20:14.419Z,11.02
2023-05-09T03:21:14.406Z,10.89
2023-05-09T03:22:14.404Z,11.00
2023-05-09T03:23:14.408Z,10.91
2023-05-09T03:24:14.400Z,10.91
2023-05-09T03:25:14.663Z,10.86
2023-05-09T03:26:14.409Z,10.88
2023-05-09T03:27:14.391Z,10.79
2023-05-09T03:28:14.398Z,10.79
2023-05-09T03:29:14.397Z,10.76
2023-05-09T03:30:14.543Z,10.76
2023-05-09T03:31:14.425Z,10.71
2023-05-09T03:32:15.233Z,10.55
2023-05-09T03:33:14.385Z,10.63
2023-05-09T03:34:14.385Z,10.53
2023-05-09T03:35:14.534Z,10.61
2023-05-09T03:36:14.396Z,10.60
2023-05-09T03:37:14.391Z,10.48
2023-05-09T03:38:14.407Z,10.47
2023-05-09T03:39:14.377Z,10.55
2023-05-09T03:40:14.383Z,10.44
2023-05-09T03:41:14.372Z,10.40
2023-05-09T03:42:14.384Z,10.45
2023-05-09T03:43:14.372Z,10.47
2023-05-09T03:44:14.389Z,10.36
2023-05-09T03:45:14.578Z,10.51
2023-05-09T03:46:14.515Z,10.30
2023-05-09T03:47:14.361Z,10.18
2023-05-09T03:48:14.383Z,10.30
2023-05-09T03:49:14.360Z,10.32
2023-05-09T03:50:14.369Z,10.18
2023-05-09T03:51:14.358Z,10.26
2023-05-09T03:52:14.360Z,10.22
2023-05-09T03:53:14.366Z,10.22
2023-05-09T03:54:14.361Z,10.20
2023-05-09T03:55:14.497Z,10.15
2023-05-09T03:56:14.353Z,10.27
2023-05-09T03:57:14.351Z,10.33
2023-05-09T03:58:14.352Z,10.32
2023-05-09T03:59:14.345Z,10.23
2023-05-09T04:00:14.374Z,10.30
2023-05-09T04:01:14.335Z,10.29
2023-05-09T04:02:14.518Z,10.22
2023-05-09T04:03:14.448Z,10.22
2023-05-09T04:04:14.397Z,10.20
2023-05-09T04:05:14.550Z,10.33
2023-05-09T04:06:14.334Z,10.27
2023-05-09T04:07:14.344Z,10.11
2023-05-09T04:08:14.347Z,10.22
2023-05-09T04:09:14.328Z,10.12
2023-05-09T04:10:14.337Z,10.09
2023-05-09T04:11:14.326Z,10.25
2023-05-09T04:12:14.325Z,10.14
2023-05-09T04:13:14.348Z,10.14
2023-05-09T04:14:14.323Z,10.20
2023-05-09T04:15:14.520Z,10.29
2023-05-09T04:16:14.398Z,10.32
2023-05-09T04:17:14.310Z,10.25
2023-05-09T04:18:14.441Z,10.23
2023-05-09T04:19:14.358Z,10.17
2023-05-09T04:20:14.348Z,10.23
2023-05-09T04:21:14.309Z,10.18
2023-05-09T04:22:14.308Z,10.22
2023-05-09T04:23:14.309Z,10.14
2023-05-09T04:24:14.307Z,10.27
2023-05-09T04:25:14.543Z,10.32
2023-05-09T04:26:14.299Z,10.18
2023-05-09T04:27:14.290Z,10.38
2023-05-09T04:28:14.295Z,10.26
2023-05-09T04:29:14.307Z,10.30
2023-05-09T04:30:14.288Z,10.44
2023-05-09T04:31:14.343Z,10.41
2023-05-09T04:32:14.365Z,10.45
2023-05-09T04:33:14.288Z,10.42
2023-05-09T04:34:14.408Z,10.51
2023-05-09T04:35:14.687Z,10.56
2023-05-09T04:36:14.281Z,10.51
2023-05-09T04:37:14.288Z,10.56
2023-05-09T04:38:14.278Z,10.66
2023-05-09T04:39:14.274Z,10.64
2023-05-09T04:40:14.271Z,10.68
2023-05-09T04:41:14.279Z,10.63
2023-05-09T04:42:14.267Z,10.76
2023-05-09T04:43:14.267Z,10.73
2023-05-09T04:44:14.270Z,10.74
2023-05-09T04:45:14.480Z,10.76
2023-05-09T04:46:14.315Z,10.82
2023-05-09T04:47:14.265Z,10.81
2023-05-09T04:48:14.265Z,10.86
2023-05-09T04:49:14.250Z,10.92
2023-05-09T04:50:14.427Z,10.86
2023-05-09T04:51:14.250Z,10.85
2023-05-09T04:52:14.258Z,10.85
2023-05-09T04:53:14.243Z,10.92
2023-05-09T04:54:14.252Z,11.02
2023-05-09T04:55:14.529Z,11.06
2023-05-09T04:56:14.243Z,11.07
2023-05-09T04:57:18.563Z,11.15
2023-05-09T04:58:14.232Z,11.21
2023-05-09T04:59:14.233Z,11.22
2023-05-09T05:00:14.234Z,11.14
2023-05-09T05:01:14.275Z,11.19
2023-05-09T05:02:14.254Z,11.22
2023-05-09T05:03:14.230Z,11.29
2023-05-09T05:04:14.299Z,11.32
2023-05-09T05:05:14.244Z,11.29
2023-05-09T05:06:14.386Z,11.35
2023-05-09T05:07:14.221Z,11.52
2023-05-09T05:08:14.217Z,11.60
2023-05-09T05:09:14.220Z,11.55
2023-05-09T05:10:14.224Z,11.62
2023-05-09T05:11:14.211Z,11.61
2023-05-09T05:12:14.209Z,11.79
2023-05-09T05:13:14.244Z,11.80
2023-05-09T05:14:14.214Z,11.82
2023-05-09T05:15:14.453Z,11.94
2023-05-09T05:16:14.284Z,12.01
2023-05-09T05:17:14.209Z,12.09
2023-05-09T05:18:14.225Z,12.07
2023-05-09T05:19:14.211Z,12.13
2023-05-09T05:20:14.203Z,12.14
2023-05-09T05:21:14.200Z,12.24
2023-05-09T05:22:14.325Z,12.32
2023-05-09T05:23:14.198Z,12.38
2023-05-09T05:24:14.196Z,12.39
2023-05-09T05:25:14.430Z,12.46
2023-05-09T05:26:14.181Z,12.50
2023-05-09T05:27:14.193Z,12.59
2023-05-09T05:28:14.186Z,12.82
2023-05-09T05:29:14.186Z,12.77
2023-05-09T05:30:14.216Z,12.82
2023-05-09T05:31:14.202Z,12.82
2023-05-09T05:32:14.181Z,12.79
2023-05-09T05:33:14.180Z,12.85
2023-05-09T05:34:14.171Z,12.97
2023-05-09T05:35:14.378Z,13.17
2023-05-09T05:36:14.169Z,13.01
2023-05-09T05:37:14.178Z,13.17
2023-05-09T05:38:14.289Z,13.30
2023-05-09T05:39:14.220Z,13.28
2023-05-09T05:40:14.171Z,13.39
2023-05-09T05:41:14.165Z,13.55
2023-05-09T05:42:14.152Z,13.59
2023-05-09T05:43:14.161Z,13.63
2023-05-09T05:44:14.156Z,13.75
2023-05-09T05:45:14.298Z,13.79
2023-05-09T05:46:14.269Z,13.79
2023-05-09T05:47:14.162Z,13.82
2023-05-09T05:48:14.148Z,13.92
2023-05-09T05:49:14.150Z,14.06
2023-05-09T05:50:14.143Z,14.06
2023-05-09T05:51:14.147Z,14.12
2023-05-09T05:52:14.137Z,14.21
2023-05-09T05:53:14.160Z,14.15
2023-05-09T05:54:14.175Z,14.17
2023-05-09T05:55:14.382Z,14.24
2023-05-09T05:56:14.137Z,14.25
2023-05-09T05:57:14.144Z,14.25
2023-05-09T05:58:14.130Z,14.09
2023-05-09T05:59:14.140Z,14.24
2023-05-09T06:00:14.138Z,14.17
2023-05-09T06:01:14.137Z,14.22
2023-05-09T06:02:14.174Z,14.22
2023-05-09T06:03:14.310Z,14.43
2023-05-09T06:04:14.176Z,14.50
2023-05-09T06:05:14.396Z,14.45
2023-05-09T06:06:14.122Z,14.51
2023-05-09T06:07:14.131Z,14.52
2023-05-09T06:08:14.129Z,14.51
2023-05-09T06:09:14.125Z,14.70
2023-05-09T06:10:14.243Z,14.78
2023-05-09T06:11:14.128Z,14.80
2023-05-09T06:12:14.119Z,14.94
2023-05-09T06:13:14.150Z,14.96
2023-05-09T06:14:14.117Z,14.88
2023-05-09T06:15:14.228Z,14.83
2023-05-09T06:16:19.337Z,14.96
2023-05-09T06:17:14.172Z,14.96
2023-05-09T06:18:14.108Z,14.99
2023-05-09T06:19:14.108Z,15.02
2023-05-09T06:20:14.106Z,15.07
2023-05-09T06:21:14.118Z,14.84
2023-05-09T06:22:14.106Z,14.92
2023-05-09T06:23:14.112Z,14.98
2023-05-09T06:24:20.107Z,15.07
2023-05-09T06:25:14.372Z,15.17
2023-05-09T06:26:14.223Z,15.17
2023-05-09T06:27:14.114Z,15.29
2023-05-09T06:28:14.102Z,15.32
2023-05-09T06:29:14.107Z,15.29
2023-05-09T06:30:24.482Z,15.39
2023-05-09T06:31:14.157Z,15.53
2023-05-09T06:32:14.108Z,15.56
2023-05-09T06:33:14.100Z,15.71
2023-05-09T06:34:14.104Z,15.90
2023-05-09T06:35:14.330Z,15.87
2023-05-09T06:36:14.097Z,15.72
2023-05-09T06:37:14.099Z,15.64
2023-05-09T06:38:14.101Z,15.76
2023-05-09T06:39:14.099Z,15.97
2023-05-09T06:40:14.107Z,15.94
2023-05-09T06:41:14.126Z,16.04
2023-05-09T06:42:14.234Z,16.11
2023-05-09T06:43:14.106Z,16.24
2023-05-09T06:44:14.098Z,16.45
2023-05-09T06:45:14.313Z,16.39
2023-05-09T06:46:14.121Z,16.45
2023-05-09T06:47:14.095Z,16.41
2023-05-09T06:48:14.095Z,16.39
2023-05-09T06:49:14.105Z,16.38
2023-05-09T06:50:14.093Z,16.24
2023-05-09T06:51:14.099Z,16.42
2023-05-09T06:52:14.090Z,16.35
2023-05-09T06:53:14.097Z,16.21
2023-05-09T06:54:14.104Z,16.35
2023-05-09T06:55:14.263Z,16.39
2023-05-09T06:56:14.091Z,16.38
2023-05-09T06:57:14.094Z,16.45
2023-05-09T06:58:14.205Z,16.49
2023-05-09T06:59:14.085Z,16.75
2023-05-09T07:00:14.103Z,16.88
2023-05-09T07:01:14.143Z,16.73
2023-05-09T07:02:14.097Z,16.97
2023-05-09T07:03:14.130Z,17.00
2023-05-09T07:04:14.091Z,16.98
2023-05-09T07:05:14.368Z,16.96
2023-05-09T07:06:14.093Z,17.07
2023-05-09T07:07:14.095Z,17.11
2023-05-09T07:08:14.085Z,17.07
2023-05-09T07:09:14.092Z,17.11
2023-05-09T07:10:14.097Z,17.08
2023-05-09T07:11:14.106Z,17.33
2023-05-09T07:12:14.090Z,17.34
2023-05-09T07:13:14.151Z,17.40
2023-05-09T07:14:14.218Z,17.58
2023-05-09T07:15:18.552Z,17.72
2023-05-09T07:16:14.126Z,17.79
2023-05-09T07:17:23.031Z,17.78
2023-05-09T07:18:14.088Z,17.86
2023-05-09T07:19:14.100Z,17.78
2023-05-09T07:20:14.090Z,17.90
2023-05-09T07:21:14.087Z,17.93
2023-05-09T07:22:14.103Z,17.93
2023-05-09T07:23:14.092Z,18.14
2023-05-09T07:24:14.120Z,18.25
2023-05-09T07:25:14.234Z,18.29
2023-05-09T07:26:14.088Z,18.36
2023-05-09T07:27:14.138Z,18.41
2023-05-09T07:28:14.095Z,18.58
2023-05-09T07:29:14.103Z,18.73
2023-05-09T07:30:14.411Z,19.22
2023-05-09T07:31:14.126Z,19.48
2023-05-09T07:32:14.128Z,19.96
2023-05-09T07:33:14.131Z,20.26
2023-05-09T07:34:14.091Z,20.18
2023-05-09T07:35:14.270Z,20.33
2023-05-09T07:36:14.094Z,21.01
2023-05-09T07:37:15.425Z,21.40
2023-05-09T07:38:14.095Z,22.20
2023-05-09T07:39:14.104Z,22.27
2023-05-09T07:40:14.521Z,22.64
2023-05-09T07:41:14.124Z,22.75
2023-05-09T07:42:14.110Z,23.16
2023-05-09T07:43:14.097Z,23.43
2023-05-09T07:44:14.096Z,23.69
2023-05-09T07:45:14.326Z,23.55
2023-05-09T07:46:14.234Z,23.20
2023-05-09T07:47:14.109Z,23.54
2023-05-09T07:48:14.100Z,23.73
2023-05-09T07:49:14.115Z,23.83
2023-05-09T07:50:14.102Z,24.13
2023-05-09T07:51:14.109Z,24.64
2023-05-09T07:52:14.113Z,25.06
2023-05-09T07:53:14.158Z,24.69
2023-05-09T07:54:14.114Z,24.64
2023-05-09T07:55:14.355Z,25.06
2023-05-09T07:56:14.139Z,25.27
2023-05-09T07:57:14.136Z,25.97
2023-05-09T07:58:14.138Z,25.72
2023-05-09T07:59:14.126Z,25.50
2023-05-09T08:00:14.126Z,24.87
2023-05-09T08:01:14.143Z,24.39
2023-05-09T08:02:14.303Z,23.72
2023-05-09T08:03:14.290Z,23.57
2023-05-09T08:04:14.181Z,23.60
2023-05-09T08:05:14.446Z,23.47
2023-05-09T08:06:14.147Z,24.15
2023-05-09T08:07:14.164Z,23.80
2023-05-09T08:08:14.156Z,23.69
2023-05-09T08:09:14.173Z,23.46
2023-05-09T08:10:14.161Z,23.48
2023-05-09T08:11:14.167Z,23.57
2023-05-09T08:12:14.172Z,24.67
2023-05-09T08:13:14.203Z,25.60
2023-05-09T08:14:15.614Z,25.69
2023-05-09T08:15:14.405Z,25.23
2023-05-09T08:16:14.268Z,25.25
2023-05-09T08:17:14.197Z,25.45
2023-05-09T08:18:14.348Z,25.97
2023-05-09T08:19:14.209Z,25.90
2023-05-09T08:20:14.213Z,24.76
2023-05-09T08:21:14.254Z,23.91
2023-05-09T08:22:14.221Z,23.70
2023-05-09T08:23:14.247Z,24.39
2023-05-09T08:24:14.240Z,25.00
2023-05-09T08:25:17.064Z,25.88
2023-05-09T08:26:14.258Z,26.44
2023-05-09T08:27:14.270Z,26.69
2023-05-09T08:28:14.263Z,26.66
2023-05-09T08:29:14.276Z,26.47
2023-05-09T08:30:14.330Z,26.30
2023-05-09T08:31:14.344Z,26.62
2023-05-09T08:32:14.325Z,26.54
2023-05-09T08:33:14.365Z,25.73
2023-05-09T08:34:14.435Z,26.12
2023-05-09T08:35:14.809Z,26.77
2023-05-09T08:36:14.333Z,27.07
2023-05-09T08:37:15.249Z,26.80
2023-05-09T08:38:14.344Z,26.80
2023-05-09T08:39:14.354Z,26.21
2023-05-09T08:40:14.536Z,25.61
2023-05-09T08:41:14.377Z,25.13
2023-05-09T08:42:14.382Z,25.08
2023-05-09T08:43:14.400Z,25.69
2023-05-09T08:44:14.403Z,25.47
2023-05-09T08:45:14.420Z,25.94
2023-05-09T08:46:14.532Z,26.23
2023-05-09T08:47:14.433Z,26.63
2023-05-09T08:48:14.445Z,27.22
2023-05-09T08:49:14.454Z,27.65
2023-05-09T08:50:14.873Z,27.51
2023-05-09T08:51:14.477Z,27.49
2023-05-09T08:52:14.487Z,27.41
2023-05-09T08:53:14.494Z,26.89
2023-05-09T08:54:14.509Z,27.10
2023-05-09T08:55:14.520Z,27.02
2023-05-09T08:56:14.539Z,27.66
2023-05-09T08:57:14.557Z,27.79
2023-05-09T08:58:14.548Z,27.99
2023-05-09T08:59:14.563Z,28.41
2023-05-09T09:00:15.981Z,28.56
2023-05-09T09:01:14.601Z,28.48
2023-05-09T09:02:14.720Z,28.41
2023-05-09T09:03:14.670Z,27.63
2023-05-09T09:04:14.798Z,27.94
2023-05-09T09:05:28.633Z,29.08
2023-05-09T09:06:14.761Z,29.39
2023-05-09T09:07:14.665Z,29.65
2023-05-09T09:08:14.672Z,29.09
2023-05-09T09:09:14.695Z,29.26
2023-05-09T09:10:15.078Z,29.27
2023-05-09T09:11:14.718Z,28.61
2023-05-09T09:12:14.729Z,28.29
2023-05-09T09:13:14.861Z,27.39
2023-05-09T09:14:14.758Z,27.18
2023-05-09T09:15:14.780Z,26.84
2023-05-09T09:16:14.810Z,26.47
2023-05-09T09:17:14.798Z,26.36
2023-05-09T09:18:14.816Z,26.44
2023-05-09T09:19:14.827Z,26.32
2023-05-09T09:20:15.011Z,26.29
2023-05-09T09:21:14.855Z,26.57
2023-05-09T09:22:15.011Z,27.00
2023-05-09T09:23:14.883Z,27.19
2023-05-09T09:24:14.906Z,27.24
2023-05-09T09:25:14.939Z,27.79
2023-05-09T09:26:14.931Z,27.81
2023-05-09T09:27:14.948Z,27.43
2023-05-09T09:28:20.021Z,27.63
2023-05-09T09:29:14.983Z,28.18
2023-05-09T09:30:15.351Z,28.90
2023-05-09T09:31:17.130Z,29.08
2023-05-09T09:32:15.073Z,29.19
2023-05-09T09:33:15.073Z,29.36
2023-05-09T09:34:15.066Z,29.95
2023-05-09T09:35:15.063Z,30.13
2023-05-09T09:36:15.080Z,29.97
2023-05-09T09:37:15.106Z,30.47
2023-05-09T09:38:15.235Z,31.39
2023-05-09T09:39:15.128Z,30.80
2023-05-09T09:40:15.475Z,30.43
2023-05-09T09:41:15.169Z,30.55
2023-05-09T09:42:15.178Z,29.92
2023-05-09T09:43:15.190Z,30.57
2023-05-09T09:44:15.207Z,31.01
2023-05-09T09:45:15.240Z,30.70
2023-05-09T09:46:15.263Z,30.70
2023-05-09T09:47:15.254Z,30.88
2023-05-09T09:48:15.284Z,31.29
2023-05-09T09:49:15.289Z,31.69
2023-05-09T09:50:15.522Z,31.20
2023-05-09T09:51:15.339Z,29.70
2023-05-09T09:52:15.351Z,29.43
2023-05-09T09:53:15.364Z,29.85
2023-05-09T09:54:15.502Z,29.85
2023-05-09T09:55:15.399Z,29.94
2023-05-09T09:56:15.416Z,29.67
2023-05-09T09:57:15.457Z,29.51
2023-05-09T09:58:15.453Z,28.48
2023-05-09T09:59:15.474Z,28.27
2023-05-09T10:00:15.672Z,28.67
2023-05-09T10:01:15.556Z,28.40
2023-05-09T10:02:15.522Z,28.11
2023-05-09T10:03:15.694Z,28.73
2023-05-09T10:04:15.606Z,29.60
2023-05-09T10:05:15.574Z,30.61
2023-05-09T10:06:15.597Z,30.53
2023-05-09T10:07:15.624Z,30.73
2023-05-09T10:08:15.648Z,30.94
2023-05-09T10:09:15.647Z,31.65
2023-05-09T10:10:16.298Z,32.60
2023-05-09T10:11:15.684Z,32.82
2023-05-09T10:12:15.708Z,32.06
2023-05-09T10:13:15.791Z,30.92
2023-05-09T10:14:15.740Z,30.88
2023-05-09T10:15:15.764Z,30.54
2023-05-09T10:16:16.104Z,30.53
2023-05-09T10:17:15.931Z,30.58
2023-05-09T10:18:15.892Z,30.77
2023-05-09T10:19:15.834Z,31.14
2023-05-09T10:20:16.088Z,31.75
2023-05-09T10:21:15.900Z,32.00
2023-05-09T10:22:15.895Z,31.61
2023-05-09T10:23:15.919Z,31.54
2023-05-09T10:24:15.934Z,30.67
2023-05-09T10:25:16.160Z,31.02
2023-05-09T10:26:16.169Z,30.53
2023-05-09T10:27:16.006Z,30.26
2023-05-09T10:28:16.009Z,30.37
2023-05-09T10:29:16.027Z,30.54
2023-05-09T10:30:16.057Z,29.63
2023-05-09T10:31:16.084Z,29.68
2023-05-09T10:32:16.090Z,30.04
2023-05-09T10:33:16.110Z,30.11
2023-05-09T10:34:16.136Z,29.73
2023-05-09T10:35:16.474Z,29.31
2023-05-09T10:36:16.165Z,28.90
2023-05-09T10:37:16.183Z,29.26
2023-05-09T10:38:16.208Z,29.46
2023-05-09T10:39:16.222Z,29.94
2023-05-09T10:40:16.248Z,30.26
2023-05-09T10:41:16.264Z,30.61
2023-05-09T10:42:16.399Z,30.79
2023-05-09T10:43:16.308Z,31.31
2023-05-09T10:44:16.331Z,31.96
2023-05-09T10:45:16.585Z,32.14
2023-05-09T10:46:16.515Z,32.55
2023-05-09T10:47:16.383Z,31.51
2023-05-09T10:48:16.405Z,30.16
2023-05-09T10:49:16.427Z,30.24
2023-05-09T10:50:16.465Z,30.54
2023-05-09T10:51:16.525Z,30.64
2023-05-09T10:52:16.484Z,30.69
2023-05-09T10:53:16.512Z,30.38
2023-05-09T10:54:16.569Z,31.01
2023-05-09T10:55:16.852Z,31.47
2023-05-09T10:56:16.570Z,32.40
2023-05-09T10:57:16.596Z,32.67
2023-05-09T10:58:16.734Z,32.18
2023-05-09T10:59:16.634Z,31.23
2023-05-09T11:00:16.696Z,31.62
2023-05-09T11:01:16.731Z,31.69
2023-05-09T11:02:16.694Z,31.14
2023-05-09T11:03:16.770Z,32.01
2023-05-09T11:04:16.753Z,32.41
2023-05-09T11:05:16.895Z,31.51
2023-05-09T11:06:16.793Z,31.47
2023-05-09T11:07:16.813Z,31.81
2023-05-09T11:08:16.831Z,32.48
2023-05-09T11:09:16.853Z,32.03
2023-05-09T11:10:16.990Z,31.62
2023-05-09T11:11:16.898Z,31.63
2023-05-09T11:12:16.931Z,30.99
2023-05-09T11:13:17.005Z,31.43
2023-05-09T11:14:17.093Z,31.35
2023-05-09T11:15:17.064Z,31.29
2023-05-09T11:16:17.061Z,31.13
2023-05-09T11:17:17.028Z,31.01
2023-05-09T11:18:17.721Z,31.12
2023-05-09T11:19:17.080Z,31.99
2023-05-09T11:20:17.113Z,32.28
2023-05-09T11:21:17.115Z,32.06
2023-05-09T11:22:17.147Z,31.86
2023-05-09T11:23:17.187Z,31.81
2023-05-09T11:24:17.187Z,31.73
2023-05-09T11:25:17.485Z,32.59
2023-05-09T11:26:17.232Z,31.65
2023-05-09T11:27:17.253Z,31.95
2023-05-09T11:28:17.273Z,32.03
2023-05-09T11:29:17.295Z,31.92
2023-05-09T11:30:17.597Z,31.81
2023-05-09T11:31:17.355Z,32.25
2023-05-09T11:32:17.396Z,31.46
2023-05-09T11:33:17.391Z,31.56
2023-05-09T11:34:17.409Z,31.57
2023-05-09T11:35:17.784Z,31.81
2023-05-09T11:36:17.492Z,31.58
2023-05-09T11:37:17.473Z,31.68
2023-05-09T11:38:17.499Z,31.48
2023-05-09T11:39:17.516Z,31.31
2023-05-09T11:40:17.549Z,31.61
2023-05-09T11:41:17.577Z,32.59
2023-05-09T11:42:17.586Z,32.84
2023-05-09T11:43:17.613Z,31.84
2023-05-09T11:44:17.630Z,31.29
2023-05-09T11:45:17.866Z,30.94
2023-05-09T11:46:17.826Z,31.04
2023-05-09T11:47:17.691Z,30.17
2023-05-09T11:48:17.731Z,29.41
2023-05-09T11:49:17.758Z,29.79
2023-05-09T11:50:17.761Z,29.89
2023-05-09T11:51:17.786Z,28.96
2023-05-09T11:52:17.813Z,28.83
2023-05-09T11:53:17.831Z,29.70
2023-05-09T11:54:17.855Z,30.08
2023-05-09T11:55:18.213Z,30.80
2023-05-09T11:56:17.899Z,31.21
2023-05-09T11:57:17.929Z,32.28
2023-05-09T11:58:17.948Z,30.92
2023-05-09T11:59:17.964Z,30.58
2023-05-09T12:00:17.980Z,29.58
2023-05-09T12:01:18.007Z,30.22
2023-05-09T12:02:18.197Z,29.58
2023-05-09T12:03:18.172Z,30.49
2023-05-09T12:04:18.102Z,29.83
2023-05-09T12:05:18.124Z,30.02
2023-05-09T12:06:18.114Z,29.37
2023-05-09T12:07:18.132Z,29.19
2023-05-09T12:08:18.158Z,28.86
2023-05-09T12:09:18.175Z,29.78
2023-05-09T12:10:18.199Z,30.89
2023-05-09T12:11:18.234Z,31.35
2023-05-09T12:12:18.240Z,31.75
2023-05-09T12:13:18.291Z,31.51
2023-05-09T12:14:18.284Z,30.72
2023-05-09T12:15:19.258Z,31.16
2023-05-09T12:16:18.383Z,31.19
2023-05-09T12:17:18.349Z,28.88
2023-05-09T12:18:18.499Z,28.93
2023-05-09T12:19:18.382Z,29.18
2023-05-09T12:20:18.419Z,29.00
2023-05-09T12:21:18.492Z,29.41
2023-05-09T12:22:18.465Z,30.20
2023-05-09T12:23:18.476Z,30.13
2023-05-09T12:24:18.493Z,30.38
2023-05-09T12:25:18.511Z,30.00
2023-05-09T12:26:18.538Z,30.60
2023-05-09T12:27:18.565Z,30.98
2023-05-09T12:28:18.596Z,30.57
2023-05-09T12:29:18.603Z,29.70
2023-05-09T12:30:18.629Z,29.26
2023-05-09T12:31:18.718Z,30.17
2023-05-09T12:32:18.663Z,30.34
2023-05-09T12:33:18.679Z,29.46
2023-05-09T12:34:19.084Z,28.92
2023-05-09T12:35:18.718Z,28.62
2023-05-09T12:36:18.750Z,29.92
2023-05-09T12:37:18.758Z,30.99
2023-05-09T12:38:18.776Z,31.73
2023-05-09T12:39:18.799Z,32.52
2023-05-09T12:40:18.820Z,33.38
2023-05-09T12:41:35.014Z,32.79
2023-05-09T12:42:18.858Z,31.62
2023-05-09T12:43:18.887Z,30.65
2023-05-09T12:44:18.922Z,31.39
2023-05-09T12:45:19.099Z,31.46
2023-05-09T12:46:19.028Z,31.61
2023-05-09T12:47:19.046Z,31.69
2023-05-09T12:48:18.981Z,31.68
2023-05-09T12:49:19.009Z,32.78
2023-05-09T12:50:19.137Z,33.29
2023-05-09T12:51:19.049Z,33.09
2023-05-09T12:52:19.055Z,32.89